QSC weather

Mário Pereira Lopes–São Carlos Airport
São Carlos, São Paulo, Brazil

Public forecast

Using degrees Celsius for public forecast. Weather courtesy of forecast.io.

METAR (pilot weather report)

Report is more than 6 hours old.

Closest report is Araraquara Airport, 13.3 nm (24.7 km) WNW. Retrieved 2019/08/17 02:00 UTC (2 days ago):

SBAQ 170200Z 13002KT CAVOK 19/11 Q1023

TAF (pilot weather forecast)

Closest forecast is Campo Fontenelle Airport, 32.4 nm (59.9 km) ESE. Retrieved 2019/08/18 18:30 UTC (11 minutes ago):

TAF SBYS 181600Z 1818/1906 07005KT CAVOK TX26/1819Z TN10/1905Z BECMG 1901/1903 19005KT 8000 FEW005 RMK PAY